VOCL

Calicut International Airport

Airport
ICAO code
VOCL
Summary
ICAO Region
APAC
ICAO Territory
Location

Kozhikode, Kerala,

Coordinates
11° 8' 22" N , 75° 57' 6" E
KCC
Airport WX
Cumulonimbus
Metar
Observation
VOCL 050000Z 07004KT 5000 BR FEW012 SCT080 22/21 Q1010 NOSIG
Station
CALICUT
Date/Time
2022-12-05 00:00:00
Wind direction
70°
Wind speed
04 kts
Lowest cloud amount
few clouds
Temperature
22°C
Dew point
21°C
Humidity
94%
QNH
1010 hPa
Weather condition
n/a

Description

Calicut International Airport, also known as Karipur Airport, is a public airport located 28 km southeast of Kozhikode (Calicut) and 25 km northwest of Malappuram, cities in the state of Kerala, India.

Climatology

Tropical Monsoon climate (Köppen climate classification Am) - monthly mean temperatures above 18°C in every month of the year and features wet and dry seasons. A tropical monsoon climate typically features less pronounced dry seasons than a tropical savanna climate and sees less variance in temperatures during the course of the year. The driest month nearly always occurs at or soon after the "winter" solstice.

Airport map

Aerial View

SKYbrary Partners:

Safety knowledge contributed by: